Hartford, Michigan
Current Conditions -  °F | °C
As of 5:35 PM on Monday 24 Nov 2014 (Local Time) from KLWA Reporting Station
Overcast Overcast  
Wind Chill: 23°   Ceiling: 1600
Heat Index: 35°   Visibility: 10mi
Dew Point: 31°   Wind: 22mph
Humidity: 86%   Direction: 240°WSW
Pressure: 29.5"   Gusts: 35mph
Location:  42.21°N, 86.17°W
Report Text: KLWA 242235Z AUTO 24019G30KT 10SM BKN016 OVC023 02/00 A2950 RMK AO2 T00161005
Loading
Personal Weather Stations






























Interactive Weather Map New forecast layout! Learn more

10-Day Weather Forecast

Advertisements
Track Severe Weather on mobile